Yerbogachen, Russia
Current Conditions -  °F | °C
As of 5:30 AM on Tuesday 21 Oct 2014 (Local Time) from UIBB Reporting Station
Broken Clouds Broken Clouds  
Wind Chill:   Ceiling: 20000
Heat Index: 19°   Visibility: 3mi
Dew Point:   Wind: 9mph
Humidity: 58%   Direction: 110°ESE
Pressure: 29.91"   Gusts: NA
Location:  61.28°N, 108.01°E
Report Text: UIBB 202130Z 11004MPS P5000 BKN200 M07/M14 Q1013 NOSIG RMKQFE716/0955 30410255
Loading
Personal Weather Stations






























Interactive Weather Map
Tropical Storm Tracking
New forecast layout! Learn more

10-Day Weather Forecast

Advertisements
Track Severe Weather on mobile